Time,TemperatureF,DewpointF,PressureIn,WindDirection,WindDirectionDegrees,WindSpeedMPH,WindSpeedGustMPH,Humidity,HourlyPrecipIn,Conditions,Clouds,dailyrainin,SoftwareType,DateUTC
2013-06-08 00:00:00,52.0,37.0,29.92,NNW,335,4.0,8.0,56,0.00,,,0.13,,2013-06-08 08:00:00,
2013-06-08 00:32:00,52.0,37.0,29.92,NNW,335,4.0,8.0,56,0.00,,,0.13,,2013-06-08 08:32:00,
2013-06-08 00:42:00,52.0,37.0,29.92,NNW,335,4.0,8.0,56,0.00,,,0.13,,2013-06-08 08:42:00,
2013-06-08 00:52:00,52.0,37.0,29.92,NNW,335,4.0,8.0,56,0.00,,,0.13,,2013-06-08 08:52:00,
2013-06-08 01:00:00,52.0,36.0,29.93,NNW,345,4.0,7.0,55,0.00,,,0.13,,2013-06-08 09:00:00,
2013-06-08 01:33:00,52.0,36.0,29.93,NNW,345,4.0,7.0,55,0.00,,,0.13,,2013-06-08 09:33:00,
2013-06-08 01:43:00,52.0,36.0,29.93,NNW,345,4.0,7.0,55,0.00,,,0.13,,2013-06-08 09:43:00,
2013-06-08 01:53:00,52.0,36.0,29.93,NNW,345,4.0,7.0,55,0.00,,,0.13,,2013-06-08 09:53:00,
2013-06-08 02:00:00,52.0,37.0,29.94,NNW,327,3.0,6.0,56,0.00,,,0.13,,2013-06-08 10:00:00,
2013-06-08 02:33:00,52.0,37.0,29.94,NNW,327,3.0,6.0,56,0.00,,,0.13,,2013-06-08 10:33:00,
2013-06-08 02:43:00,52.0,37.0,29.94,NNW,327,3.0,6.0,56,0.00,,,0.13,,2013-06-08 10:43:00,
2013-06-08 02:53:00,52.0,37.0,29.94,NNW,327,3.0,6.0,56,0.00,,,0.13,,2013-06-08 10:53:00,
2013-06-08 03:00:00,51.0,36.0,29.94,WNW,292,2.0,5.0,57,0.00,,,0.13,,2013-06-08 11:00:00,
2013-06-08 03:32:00,51.0,36.0,29.94,WNW,292,2.0,5.0,57,0.00,,,0.13,,2013-06-08 11:32:00,
2013-06-08 03:42:00,51.0,36.0,29.94,WNW,292,2.0,5.0,57,0.00,,,0.13,,2013-06-08 11:42:00,
2013-06-08 03:52:00,51.0,36.0,29.94,WNW,292,2.0,5.0,57,0.00,,,0.13,,2013-06-08 11:52:00,
2013-06-08 04:00:00,49.0,36.0,29.95,WNW,284,3.0,4.0,61,0.00,,,0.13,,2013-06-08 12:00:00,
2013-06-08 04:33:00,49.0,36.0,29.95,WNW,284,3.0,4.0,61,0.00,,,0.13,,2013-06-08 12:33:00,
2013-06-08 04:42:00,49.0,36.0,29.95,WNW,284,3.0,4.0,61,0.00,,,0.13,,2013-06-08 12:42:00,
2013-06-08 04:52:00,49.0,36.0,29.95,WNW,284,3.0,4.0,61,0.00,,,0.13,,2013-06-08 12:52:00,
2013-06-08 05:00:00,49.0,37.0,29.96,WNW,295,4.0,6.0,64,0.00,,,0.13,,2013-06-08 13:00:00,
2013-06-08 05:32:00,49.0,37.0,29.96,WNW,295,4.0,6.0,64,0.00,,,0.13,,2013-06-08 13:32:00,
2013-06-08 05:42:00,49.0,37.0,29.96,WNW,295,4.0,6.0,64,0.00,,,0.13,,2013-06-08 13:42:00,
2013-06-08 05:52:00,49.0,37.0,29.96,WNW,295,4.0,6.0,64,0.00,,,0.13,,2013-06-08 13:52:00,
2013-06-08 06:00:00,50.0,38.0,29.97,NW,319,3.0,6.0,63,0.00,,,0.13,,2013-06-08 14:00:00,
2013-06-08 06:32:00,50.0,38.0,29.97,NW,319,3.0,6.0,63,0.00,,,0.13,,2013-06-08 14:32:00,
2013-06-08 06:42:00,50.0,38.0,29.97,NW,319,3.0,6.0,63,0.00,,,0.13,,2013-06-08 14:42:00,
2013-06-08 06:52:00,50.0,38.0,29.97,NW,319,3.0,6.0,63,0.00,,,0.13,,2013-06-08 14:52:00,
2013-06-08 07:00:00,55.0,40.0,29.97,West,264,2.0,4.0,56,0.00,,,0.13,,2013-06-08 15:00:00,
2013-06-08 07:33:00,55.0,40.0,29.97,West,264,2.0,4.0,56,0.00,,,0.13,,2013-06-08 15:33:00,
2013-06-08 07:43:00,55.0,40.0,29.97,West,264,2.0,4.0,56,0.00,,,0.13,,2013-06-08 15:43:00,
2013-06-08 07:53:00,55.0,40.0,29.97,West,264,2.0,4.0,56,0.00,,,0.13,,2013-06-08 15:53:00,
2013-06-08 08:00:00,57.0,41.0,29.99,West,267,4.0,8.0,54,0.00,,,-99.99,,2013-06-08 16:00:00,
2013-06-08 08:33:00,57.0,41.0,29.99,West,267,4.0,8.0,54,0.00,,,-99.99,,2013-06-08 16:33:00,
2013-06-08 08:42:00,57.0,41.0,29.99,West,267,4.0,8.0,54,0.00,,,-99.99,,2013-06-08 16:42:00,
2013-06-08 08:53:00,57.0,41.0,29.99,West,267,4.0,8.0,54,0.00,,,-99.99,,2013-06-08 16:53:00,
2013-06-08 09:00:00,59.0,41.0,29.99,West,269,5.0,10.0,51,0.00,,,0.13,,2013-06-08 17:00:00,
2013-06-08 09:32:00,59.0,41.0,29.99,West,269,5.0,10.0,51,0.00,,,0.13,,2013-06-08 17:32:00,
2013-06-08 09:42:00,59.0,41.0,29.99,West,269,5.0,10.0,51,0.00,,,0.13,,2013-06-08 17:42:00,
2013-06-08 09:52:00,59.0,41.0,29.99,West,269,5.0,10.0,51,0.00,,,0.13,,2013-06-08 17:52:00,
2013-06-08 10:00:00,61.0,40.0,30.01,West,274,4.0,10.0,46,0.00,,,0.13,,2013-06-08 18:00:00,
2013-06-08 10:32:00,61.0,40.0,30.01,West,274,4.0,10.0,46,0.00,,,0.13,,2013-06-08 18:32:00,
2013-06-08 10:42:00,61.0,40.0,30.01,West,274,4.0,10.0,46,0.00,,,0.13,,2013-06-08 18:42:00,
2013-06-08 10:52:00,61.0,40.0,30.01,West,274,4.0,10.0,46,0.00,,,0.13,,2013-06-08 18:52:00,
2013-06-08 11:00:00,63.0,37.0,30.01,West,276,5.0,12.0,38,0.00,,,-99.99,,2013-06-08 19:00:00,
2013-06-08 11:32:00,63.0,37.0,30.01,West,276,5.0,12.0,38,0.00,,,-99.99,,2013-06-08 19:32:00,
2013-06-08 11:42:00,63.0,37.0,30.01,West,276,5.0,12.0,38,0.00,,,-99.99,,2013-06-08 19:42:00,
2013-06-08 11:53:00,63.0,37.0,30.01,West,276,5.0,12.0,38,0.00,,,-99.99,,2013-06-08 19:53:00,
2013-06-08 12:00:00,62.0,39.0,30.01,WNW,284,6.0,12.0,43,0.00,,,0.13,,2013-06-08 20:00:00,
2013-06-08 12:32:00,62.0,39.0,30.01,WNW,284,6.0,12.0,43,0.00,,,0.13,,2013-06-08 20:32:00,
2013-06-08 12:42:00,62.0,39.0,30.01,WNW,284,6.0,12.0,43,0.00,,,0.13,,2013-06-08 20:42:00,
2013-06-08 12:52:00,62.0,39.0,30.01,WNW,284,6.0,12.0,43,0.00,,,0.13,,2013-06-08 20:52:00,
2013-06-08 13:00:00,54.0,43.0,30.02,North,349,4.0,16.0,66,0.01,,,0.14,,2013-06-08 21:00:00,
2013-06-08 13:33:00,54.0,43.0,30.02,North,349,4.0,16.0,66,0.01,,,0.14,,2013-06-08 21:33:00,
2013-06-08 13:43:00,54.0,43.0,30.02,North,349,4.0,16.0,66,0.01,,,0.14,,2013-06-08 21:43:00,
2013-06-08 13:53:00,54.0,43.0,30.02,North,349,4.0,16.0,66,0.01,,,0.14,,2013-06-08 21:53:00,
2013-06-08 14:00:00,62.0,40.0,30.02,WSW,255,7.0,15.0,44,0.00,,,0.14,,2013-06-08 22:00:00,
2013-06-08 14:33:00,62.0,40.0,30.02,WSW,255,7.0,15.0,44,0.00,,,0.14,,2013-06-08 22:33:00,
2013-06-08 14:43:00,62.0,40.0,30.02,WSW,255,7.0,15.0,44,0.00,,,0.14,,2013-06-08 22:43:00,
2013-06-08 14:52:00,62.0,40.0,30.02,WSW,255,7.0,15.0,44,0.00,,,0.14,,2013-06-08 22:52:00,
2013-06-08 15:00:00,61.0,38.0,30.02,West,269,5.0,17.0,42,0.00,,,0.14,,2013-06-08 23:00:00,
2013-06-08 15:32:00,61.0,38.0,30.02,West,269,5.0,17.0,42,0.00,,,0.14,,2013-06-08 23:32:00,
2013-06-08 15:42:00,61.0,38.0,30.02,West,269,5.0,17.0,42,0.00,,,0.14,,2013-06-08 23:42:00,
2013-06-08 15:52:00,61.0,38.0,30.02,West,269,5.0,17.0,42,0.00,,,0.14,,2013-06-08 23:52:00,
2013-06-08 16:00:00,65.0,37.0,30.03,West,264,8.0,14.0,36,0.00,,,-99.99,,2013-06-09 00:00:00,
2013-06-08 16:32:00,65.0,37.0,30.03,West,264,8.0,14.0,36,0.00,,,-99.99,,2013-06-09 00:32:00,
2013-06-08 16:42:00,65.0,37.0,30.03,West,264,8.0,14.0,36,0.00,,,-99.99,,2013-06-09 00:42:00,
2013-06-08 16:52:00,65.0,37.0,30.03,West,264,8.0,14.0,36,0.00,,,-99.99,,2013-06-09 00:52:00,
2013-06-08 17:00:00,63.0,37.0,30.03,WSW,237,5.0,16.0,39,0.00,,,0.02,,2013-06-09 01:00:00,
2013-06-08 17:32:00,63.0,37.0,30.03,WSW,237,5.0,16.0,39,0.00,,,0.02,,2013-06-09 01:32:00,
2013-06-08 17:42:00,63.0,37.0,30.03,WSW,237,5.0,16.0,39,0.00,,,0.02,,2013-06-09 01:42:00,
2013-06-08 17:52:00,63.0,37.0,30.03,WSW,237,5.0,16.0,39,0.00,,,0.02,,2013-06-09 01:52:00,
2013-06-08 18:00:00,67.0,35.0,30.02,WSW,238,7.0,17.0,31,0.00,,,0.01,,2013-06-09 02:00:00,
2013-06-08 18:32:00,67.0,35.0,30.02,WSW,238,7.0,17.0,31,0.00,,,0.01,,2013-06-09 02:32:00,
2013-06-08 18:42:00,67.0,35.0,30.02,WSW,238,7.0,17.0,31,0.00,,,0.01,,2013-06-09 02:42:00,
2013-06-08 18:52:00,67.0,35.0,30.02,WSW,238,7.0,17.0,31,0.00,,,0.01,,2013-06-09 02:52:00,
2013-06-08 19:00:00,66.0,37.0,30.03,SW,230,6.0,16.0,35,0.00,,,0.01,,2013-06-09 03:00:00,
2013-06-08 19:33:00,66.0,37.0,30.03,SW,230,6.0,16.0,35,0.00,,,0.01,,2013-06-09 03:33:00,
2013-06-08 19:43:00,66.0,37.0,30.03,SW,230,6.0,16.0,35,0.00,,,0.01,,2013-06-09 03:43:00,
2013-06-08 19:53:00,66.0,37.0,30.03,SW,230,6.0,16.0,35,0.00,,,0.01,,2013-06-09 03:53:00,
2013-06-08 20:00:00,65.0,37.0,30.03,SW,233,6.0,15.0,36,0.00,,,0.01,,2013-06-09 04:00:00,
2013-06-08 20:33:00,65.0,37.0,30.03,SW,233,6.0,15.0,36,0.00,,,0.01,,2013-06-09 04:33:00,
2013-06-08 20:43:00,65.0,37.0,30.03,SW,233,6.0,15.0,36,0.00,,,0.01,,2013-06-09 04:43:00,
2013-06-08 20:53:00,65.0,37.0,30.03,SW,233,6.0,15.0,36,0.00,,,0.01,,2013-06-09 04:53:00,
2013-06-08 21:00:00,61.0,38.0,30.04,SW,236,7.0,14.0,42,0.00,,,0.01,,2013-06-09 05:00:00,
2013-06-08 21:32:00,61.0,38.0,30.04,SW,236,7.0,14.0,42,0.00,,,0.01,,2013-06-09 05:32:00,
2013-06-08 21:42:00,61.0,38.0,30.04,SW,236,7.0,14.0,42,0.00,,,0.01,,2013-06-09 05:42:00,
2013-06-08 21:52:00,61.0,38.0,30.04,SW,236,7.0,14.0,42,0.00,,,0.01,,2013-06-09 05:52:00,
2013-06-08 22:00:00,58.0,32.0,30.05,WSW,254,8.0,15.0,37,0.00,,,0.01,,2013-06-09 06:00:00,
2013-06-08 22:32:00,58.0,32.0,30.05,WSW,254,8.0,15.0,37,0.00,,,0.01,,2013-06-09 06:32:00,
2013-06-08 22:42:00,58.0,32.0,30.05,WSW,254,8.0,15.0,37,0.00,,,0.01,,2013-06-09 06:42:00,
2013-06-08 22:52:00,58.0,32.0,30.05,WSW,254,8.0,15.0,37,0.00,,,0.01,,2013-06-09 06:52:00,
2013-06-08 23:00:00,55.0,32.0,30.08,WSW,250,6.0,14.0,42,0.00,,,0.01,,2013-06-09 07:00:00,
2013-06-08 23:32:00,55.0,32.0,30.08,WSW,250,6.0,14.0,42,0.00,,,0.01,,2013-06-09 07:32:00,
2013-06-08 23:42:00,55.0,32.0,30.08,WSW,250,6.0,14.0,42,0.00,,,0.01,,2013-06-09 07:42:00,
2013-06-08 23:52:00,55.0,32.0,30.08,WSW,250,6.0,14.0,42,0.00,,,0.01,,2013-06-09 07:52:00,